sensor_id;sensor_type;location;lat;lon;timestamp;P1;durP1;ratioP1;P2;durP2;ratioP2
14316;SDS011;7242;50.858;6.586;2023-08-07T00:01:02;7.50;;;2.83;;
14316;SDS011;7242;50.858;6.586;2023-08-07T00:04:03;10.60;;;3.13;;
14316;SDS011;7242;50.858;6.586;2023-08-07T00:07:04;9.97;;;2.83;;
14316;SDS011;7242;50.858;6.586;2023-08-07T00:10:05;10.80;;;3.07;;
14316;SDS011;7242;50.858;6.586;2023-08-07T00:13:07;13.17;;;3.17;;
14316;SDS011;7242;50.858;6.586;2023-08-07T00:16:08;11.57;;;3.03;;
14316;SDS011;7242;50.858;6.586;2023-08-07T00:19:10;8.73;;;3.10;;
14316;SDS011;7242;50.858;6.586;2023-08-07T00:22:11;10.60;;;3.10;;
14316;SDS011;7242;50.858;6.586;2023-08-07T00:25:12;12.13;;;3.07;;
14316;SDS011;7242;50.858;6.586;2023-08-07T00:28:13;8.10;;;2.90;;
14316;SDS011;7242;50.858;6.586;2023-08-07T00:31:14;11.87;;;3.23;;
14316;SDS011;7242;50.858;6.586;2023-08-07T00:34:15;11.30;;;3.17;;
14316;SDS011;7242;50.858;6.586;2023-08-07T00:37:17;11.57;;;3.33;;
14316;SDS011;7242;50.858;6.586;2023-08-07T00:40:18;9.13;;;2.93;;
14316;SDS011;7242;50.858;6.586;2023-08-07T00:43:19;10.33;;;3.30;;
14316;SDS011;7242;50.858;6.586;2023-08-07T00:46:19;11.50;;;3.07;;
14316;SDS011;7242;50.858;6.586;2023-08-07T00:49:20;13.97;;;3.50;;
14316;SDS011;7242;50.858;6.586;2023-08-07T00:52:21;6.17;;;2.70;;
14316;SDS011;7242;50.858;6.586;2023-08-07T00:55:22;11.17;;;3.10;;
14316;SDS011;7242;50.858;6.586;2023-08-07T00:58:24;9.73;;;2.93;;
14316;SDS011;7242;50.858;6.586;2023-08-07T01:01:25;9.77;;;3.20;;
14316;SDS011;7242;50.858;6.586;2023-08-07T01:04:26;13.77;;;3.10;;
14316;SDS011;7242;50.858;6.586;2023-08-07T01:07:28;9.23;;;3.30;;
14316;SDS011;7242;50.858;6.586;2023-08-07T01:17:08;9.33;;;2.93;;
14316;SDS011;7242;50.858;6.586;2023-08-07T01:20:10;10.03;;;2.97;;
14316;SDS011;7242;50.858;6.586;2023-08-07T01:23:14;9.77;;;3.40;;
14316;SDS011;7242;50.858;6.586;2023-08-07T01:26:15;7.97;;;3.10;;
14316;SDS011;7242;50.858;6.586;2023-08-07T01:29:18;11.60;;;3.50;;
14316;SDS011;7242;50.858;6.586;2023-08-07T01:32:29;13.63;;;3.40;;
14316;SDS011;7242;50.858;6.586;2023-08-07T01:35:47;10.53;;;3.30;;
14316;SDS011;7242;50.858;6.586;2023-08-07T01:38:48;8.37;;;3.13;;
14316;SDS011;7242;50.858;6.586;2023-08-07T01:41:50;9.67;;;2.83;;
14316;SDS011;7242;50.858;6.586;2023-08-07T01:44:52;13.07;;;3.40;;
14316;SDS011;7242;50.858;6.586;2023-08-07T01:47:53;11.60;;;3.47;;
14316;SDS011;7242;50.858;6.586;2023-08-07T01:50:54;8.83;;;3.17;;
14316;SDS011;7242;50.858;6.586;2023-08-07T01:53:55;12.43;;;3.50;;
14316;SDS011;7242;50.858;6.586;2023-08-07T01:56:56;8.90;;;3.10;;
14316;SDS011;7242;50.858;6.586;2023-08-07T01:59:58;9.93;;;2.97;;
14316;SDS011;7242;50.858;6.586;2023-08-07T02:02:59;13.50;;;3.30;;
14316;SDS011;7242;50.858;6.586;2023-08-07T02:06:01;9.97;;;2.87;;
14316;SDS011;7242;50.858;6.586;2023-08-07T02:09:02;11.53;;;3.47;;
14316;SDS011;7242;50.858;6.586;2023-08-07T02:12:03;11.77;;;3.27;;
14316;SDS011;7242;50.858;6.586;2023-08-07T02:15:04;11.67;;;3.40;;
14316;SDS011;7242;50.858;6.586;2023-08-07T02:18:05;8.67;;;2.93;;
14316;SDS011;7242;50.858;6.586;2023-08-07T02:21:06;10.70;;;3.00;;
14316;SDS011;7242;50.858;6.586;2023-08-07T02:24:07;9.47;;;2.93;;
14316;SDS011;7242;50.858;6.586;2023-08-07T02:27:08;12.27;;;3.20;;
14316;SDS011;7242;50.858;6.586;2023-08-07T02:30:10;6.73;;;2.97;;
14316;SDS011;7242;50.858;6.586;2023-08-07T02:33:11;6.90;;;2.90;;
14316;SDS011;7242;50.858;6.586;2023-08-07T02:36:12;6.80;;;2.90;;
14316;SDS011;7242;50.858;6.586;2023-08-07T02:39:13;8.63;;;3.07;;
14316;SDS011;7242;50.858;6.586;2023-08-07T02:42:15;5.67;;;2.80;;
14316;SDS011;7242;50.858;6.586;2023-08-07T02:45:15;6.87;;;2.90;;
14316;SDS011;7242;50.858;6.586;2023-08-07T02:48:18;7.40;;;2.37;;
14316;SDS011;7242;50.858;6.586;2023-08-07T02:51:20;9.87;;;2.63;;
14316;SDS011;7242;50.858;6.586;2023-08-07T02:54:21;11.00;;;3.00;;
14316;SDS011;7242;50.858;6.586;2023-08-07T02:57:22;9.87;;;3.10;;
14316;SDS011;7242;50.858;6.586;2023-08-07T03:00:23;9.50;;;2.90;;
14316;SDS011;7242;50.858;6.586;2023-08-07T03:03:25;9.33;;;3.00;;
14316;SDS011;7242;50.858;6.586;2023-08-07T03:06:25;9.17;;;3.07;;
14316;SDS011;7242;50.858;6.586;2023-08-07T03:09:26;5.40;;;2.73;;
14316;SDS011;7242;50.858;6.586;2023-08-07T03:12:28;9.50;;;2.83;;
14316;SDS011;7242;50.858;6.586;2023-08-07T03:15:29;10.67;;;2.87;;
14316;SDS011;7242;50.858;6.586;2023-08-07T03:18:30;9.43;;;2.90;;
14316;SDS011;7242;50.858;6.586;2023-08-07T03:21:31;7.80;;;2.83;;
14316;SDS011;7242;50.858;6.586;2023-08-07T03:24:32;8.83;;;3.33;;
14316;SDS011;7242;50.858;6.586;2023-08-07T03:27:34;8.47;;;3.00;;
14316;SDS011;7242;50.858;6.586;2023-08-07T03:30:35;7.77;;;2.90;;
14316;SDS011;7242;50.858;6.586;2023-08-07T03:33:38;10.00;;;2.87;;
14316;SDS011;7242;50.858;6.586;2023-08-07T03:36:40;9.40;;;3.20;;
14316;SDS011;7242;50.858;6.586;2023-08-07T03:39:41;6.57;;;3.10;;
14316;SDS011;7242;50.858;6.586;2023-08-07T03:42:43;8.07;;;3.00;;
14316;SDS011;7242;50.858;6.586;2023-08-07T03:45:45;8.17;;;3.20;;
14316;SDS011;7242;50.858;6.586;2023-08-07T03:48:46;6.80;;;3.10;;
14316;SDS011;7242;50.858;6.586;2023-08-07T03:51:47;8.27;;;3.20;;
14316;SDS011;7242;50.858;6.586;2023-08-07T03:54:49;7.87;;;3.43;;
14316;SDS011;7242;50.858;6.586;2023-08-07T03:57:50;7.37;;;3.50;;
14316;SDS011;7242;50.858;6.586;2023-08-07T04:00:51;10.20;;;3.30;;
14316;SDS011;7242;50.858;6.586;2023-08-07T04:03:52;7.60;;;3.40;;
14316;SDS011;7242;50.858;6.586;2023-08-07T04:06:53;9.10;;;3.50;;
14316;SDS011;7242;50.858;6.586;2023-08-07T04:09:55;6.97;;;3.57;;
14316;SDS011;7242;50.858;6.586;2023-08-07T04:12:56;9.60;;;3.63;;
14316;SDS011;7242;50.858;6.586;2023-08-07T04:15:57;11.63;;;3.53;;
14316;SDS011;7242;50.858;6.586;2023-08-07T04:18:58;6.87;;;3.13;;
14316;SDS011;7242;50.858;6.586;2023-08-07T04:22:00;9.00;;;3.47;;
14316;SDS011;7242;50.858;6.586;2023-08-07T04:25:01;7.40;;;3.03;;
14316;SDS011;7242;50.858;6.586;2023-08-07T04:28:02;7.23;;;3.33;;
14316;SDS011;7242;50.858;6.586;2023-08-07T04:31:03;10.43;;;3.27;;
14316;SDS011;7242;50.858;6.586;2023-08-07T04:34:04;9.97;;;3.70;;
14316;SDS011;7242;50.858;6.586;2023-08-07T04:37:05;10.40;;;3.97;;
14316;SDS011;7242;50.858;6.586;2023-08-07T04:40:06;9.53;;;3.17;;
14316;SDS011;7242;50.858;6.586;2023-08-07T04:43:08;9.33;;;3.07;;
14316;SDS011;7242;50.858;6.586;2023-08-07T04:46:10;8.23;;;3.50;;
14316;SDS011;7242;50.858;6.586;2023-08-07T04:49:12;15.10;;;3.50;;
14316;SDS011;7242;50.858;6.586;2023-08-07T04:52:12;9.43;;;3.20;;
14316;SDS011;7242;50.858;6.586;2023-08-07T04:55:14;6.53;;;3.10;;
14316;SDS011;7242;50.858;6.586;2023-08-07T04:58:14;10.40;;;2.97;;
14316;SDS011;7242;50.858;6.586;2023-08-07T05:01:15;9.57;;;3.30;;
14316;SDS011;7242;50.858;6.586;2023-08-07T05:04:16;10.57;;;3.30;;
14316;SDS011;7242;50.858;6.586;2023-08-07T05:07:17;6.33;;;2.80;;
14316;SDS011;7242;50.858;6.586;2023-08-07T05:10:18;9.57;;;3.30;;
14316;SDS011;7242;50.858;6.586;2023-08-07T05:13:19;8.63;;;3.40;;
14316;SDS011;7242;50.858;6.586;2023-08-07T05:16:20;7.40;;;3.10;;
14316;SDS011;7242;50.858;6.586;2023-08-07T05:19:21;7.07;;;3.10;;
14316;SDS011;7242;50.858;6.586;2023-08-07T05:22:23;9.53;;;2.60;;
14316;SDS011;7242;50.858;6.586;2023-08-07T05:25:23;6.83;;;2.87;;
14316;SDS011;7242;50.858;6.586;2023-08-07T05:28:24;9.70;;;2.87;;
14316;SDS011;7242;50.858;6.586;2023-08-07T05:31:25;13.03;;;3.00;;
14316;SDS011;7242;50.858;6.586;2023-08-07T05:34:25;11.53;;;3.07;;
14316;SDS011;7242;50.858;6.586;2023-08-07T05:37:26;8.57;;;3.13;;
14316;SDS011;7242;50.858;6.586;2023-08-07T05:40:27;7.17;;;3.00;;
14316;SDS011;7242;50.858;6.586;2023-08-07T05:43:29;7.13;;;3.03;;
14316;SDS011;7242;50.858;6.586;2023-08-07T05:46:30;6.63;;;3.00;;
14316;SDS011;7242;50.858;6.586;2023-08-07T05:49:31;7.30;;;2.83;;
14316;SDS011;7242;50.858;6.586;2023-08-07T05:52:32;10.13;;;3.03;;
14316;SDS011;7242;50.858;6.586;2023-08-07T05:55:33;8.33;;;2.50;;
14316;SDS011;7242;50.858;6.586;2023-08-07T05:58:34;11.40;;;3.03;;
14316;SDS011;7242;50.858;6.586;2023-08-07T06:01:35;7.23;;;2.50;;
14316;SDS011;7242;50.858;6.586;2023-08-07T06:04:37;6.43;;;2.70;;
14316;SDS011;7242;50.858;6.586;2023-08-07T06:07:38;10.53;;;3.10;;
14316;SDS011;7242;50.858;6.586;2023-08-07T06:10:39;7.33;;;2.50;;
14316;SDS011;7242;50.858;6.586;2023-08-07T06:13:40;7.30;;;2.70;;
14316;SDS011;7242;50.858;6.586;2023-08-07T06:16:41;7.83;;;2.60;;
14316;SDS011;7242;50.858;6.586;2023-08-07T06:19:42;7.73;;;2.67;;
14316;SDS011;7242;50.858;6.586;2023-08-07T06:22:43;7.57;;;3.30;;
14316;SDS011;7242;50.858;6.586;2023-08-07T06:25:44;8.07;;;2.80;;
14316;SDS011;7242;50.858;6.586;2023-08-07T06:28:44;9.20;;;3.20;;
14316;SDS011;7242;50.858;6.586;2023-08-07T06:31:45;7.17;;;2.70;;
14316;SDS011;7242;50.858;6.586;2023-08-07T06:34:46;8.57;;;2.70;;
14316;SDS011;7242;50.858;6.586;2023-08-07T06:37:47;7.43;;;3.10;;
14316;SDS011;7242;50.858;6.586;2023-08-07T06:40:47;7.13;;;2.93;;
14316;SDS011;7242;50.858;6.586;2023-08-07T06:43:48;7.03;;;2.90;;
14316;SDS011;7242;50.858;6.586;2023-08-07T06:46:51;9.73;;;3.20;;
14316;SDS011;7242;50.858;6.586;2023-08-07T06:49:52;7.40;;;2.30;;
14316;SDS011;7242;50.858;6.586;2023-08-07T06:52:53;7.60;;;2.93;;
14316;SDS011;7242;50.858;6.586;2023-08-07T06:55:54;6.43;;;2.87;;
14316;SDS011;7242;50.858;6.586;2023-08-07T06:58:55;8.53;;;3.17;;
14316;SDS011;7242;50.858;6.586;2023-08-07T07:01:56;8.73;;;3.23;;
14316;SDS011;7242;50.858;6.586;2023-08-07T07:04:56;8.67;;;2.63;;
14316;SDS011;7242;50.858;6.586;2023-08-07T07:07:57;7.53;;;2.60;;
14316;SDS011;7242;50.858;6.586;2023-08-07T07:10:58;7.57;;;3.13;;
14316;SDS011;7242;50.858;6.586;2023-08-07T07:13:59;8.27;;;3.07;;
14316;SDS011;7242;50.858;6.586;2023-08-07T07:17:00;8.23;;;2.87;;
14316;SDS011;7242;50.858;6.586;2023-08-07T07:20:01;6.40;;;2.77;;
14316;SDS011;7242;50.858;6.586;2023-08-07T07:23:02;7.97;;;2.60;;
14316;SDS011;7242;50.858;6.586;2023-08-07T07:26:03;7.37;;;2.90;;
14316;SDS011;7242;50.858;6.586;2023-08-07T07:29:04;11.23;;;2.80;;
14316;SDS011;7242;50.858;6.586;2023-08-07T07:32:05;6.03;;;2.67;;
14316;SDS011;7242;50.858;6.586;2023-08-07T07:35:06;11.63;;;3.20;;
14316;SDS011;7242;50.858;6.586;2023-08-07T07:38:07;9.33;;;3.17;;
14316;SDS011;7242;50.858;6.586;2023-08-07T07:41:10;5.03;;;2.20;;
14316;SDS011;7242;50.858;6.586;2023-08-07T07:44:11;5.77;;;2.60;;
14316;SDS011;7242;50.858;6.586;2023-08-07T07:47:13;5.67;;;2.70;;
14316;SDS011;7242;50.858;6.586;2023-08-07T07:50:14;7.33;;;2.70;;
14316;SDS011;7242;50.858;6.586;2023-08-07T07:53:15;6.57;;;2.40;;
14316;SDS011;7242;50.858;6.586;2023-08-07T07:56:16;9.27;;;2.60;;
14316;SDS011;7242;50.858;6.586;2023-08-07T07:59:17;5.77;;;2.43;;
14316;SDS011;7242;50.858;6.586;2023-08-07T08:02:17;6.90;;;2.40;;
14316;SDS011;7242;50.858;6.586;2023-08-07T08:05:18;4.90;;;2.63;;
14316;SDS011;7242;50.858;6.586;2023-08-07T08:08:19;9.10;;;2.50;;
14316;SDS011;7242;50.858;6.586;2023-08-07T08:11:20;8.37;;;2.70;;
14316;SDS011;7242;50.858;6.586;2023-08-07T08:14:21;6.63;;;2.50;;
14316;SDS011;7242;50.858;6.586;2023-08-07T08:17:22;11.07;;;3.00;;
14316;SDS011;7242;50.858;6.586;2023-08-07T08:20:24;8.63;;;2.50;;
14316;SDS011;7242;50.858;6.586;2023-08-07T08:23:25;10.23;;;2.50;;
14316;SDS011;7242;50.858;6.586;2023-08-07T08:26:26;6.40;;;2.53;;
14316;SDS011;7242;50.858;6.586;2023-08-07T08:29:26;7.53;;;2.60;;
14316;SDS011;7242;50.858;6.586;2023-08-07T08:32:28;8.40;;;2.70;;
14316;SDS011;7242;50.858;6.586;2023-08-07T08:35:28;8.07;;;2.60;;
14316;SDS011;7242;50.858;6.586;2023-08-07T08:38:30;7.43;;;2.50;;
14316;SDS011;7242;50.858;6.586;2023-08-07T08:41:33;7.67;;;2.67;;
14316;SDS011;7242;50.858;6.586;2023-08-07T08:44:35;8.63;;;2.00;;
14316;SDS011;7242;50.858;6.586;2023-08-07T08:47:39;5.70;;;2.60;;
14316;SDS011;7242;50.858;6.586;2023-08-07T08:50:40;3.67;;;2.27;;
14316;SDS011;7242;50.858;6.586;2023-08-07T08:53:41;3.40;;;2.20;;
14316;SDS011;7242;50.858;6.586;2023-08-07T08:56:42;5.57;;;2.50;;
14316;SDS011;7242;50.858;6.586;2023-08-07T08:59:43;7.73;;;2.30;;
14316;SDS011;7242;50.858;6.586;2023-08-07T09:02:44;5.83;;;2.60;;
14316;SDS011;7242;50.858;6.586;2023-08-07T09:05:45;8.40;;;2.40;;
14316;SDS011;7242;50.858;6.586;2023-08-07T09:08:47;5.37;;;2.10;;
14316;SDS011;7242;50.858;6.586;2023-08-07T09:11:50;5.77;;;2.27;;
14316;SDS011;7242;50.858;6.586;2023-08-07T09:14:53;8.83;;;2.70;;
14316;SDS011;7242;50.858;6.586;2023-08-07T09:17:55;7.13;;;2.20;;
14316;SDS011;7242;50.858;6.586;2023-08-07T09:20:56;8.13;;;2.20;;
14316;SDS011;7242;50.858;6.586;2023-08-07T09:23:58;5.33;;;2.23;;
14316;SDS011;7242;50.858;6.586;2023-08-07T09:26:58;6.73;;;2.20;;
14316;SDS011;7242;50.858;6.586;2023-08-07T09:29:59;8.40;;;2.40;;
14316;SDS011;7242;50.858;6.586;2023-08-07T09:33:00;5.97;;;2.33;;
14316;SDS011;7242;50.858;6.586;2023-08-07T09:36:02;4.90;;;2.23;;
14316;SDS011;7242;50.858;6.586;2023-08-07T09:39:03;4.37;;;1.90;;
14316;SDS011;7242;50.858;6.586;2023-08-07T09:42:04;5.83;;;2.07;;
14316;SDS011;7242;50.858;6.586;2023-08-07T09:45:18;6.27;;;1.80;;
14316;SDS011;7242;50.858;6.586;2023-08-07T09:48:23;3.30;;;1.67;;
14316;SDS011;7242;50.858;6.586;2023-08-07T09:51:33;6.33;;;1.90;;
14316;SDS011;7242;50.858;6.586;2023-08-07T09:54:42;7.17;;;2.30;;
14316;SDS011;7242;50.858;6.586;2023-08-07T09:57:43;6.73;;;2.07;;
14316;SDS011;7242;50.858;6.586;2023-08-07T10:00:44;4.30;;;1.67;;
14316;SDS011;7242;50.858;6.586;2023-08-07T10:03:47;5.93;;;2.00;;
14316;SDS011;7242;50.858;6.586;2023-08-07T10:06:48;5.10;;;2.13;;
14316;SDS011;7242;50.858;6.586;2023-08-07T10:09:50;4.57;;;1.90;;
14316;SDS011;7242;50.858;6.586;2023-08-07T10:12:51;5.53;;;2.13;;
14316;SDS011;7242;50.858;6.586;2023-08-07T10:15:52;5.03;;;2.20;;
14316;SDS011;7242;50.858;6.586;2023-08-07T10:18:53;4.70;;;2.50;;
14316;SDS011;7242;50.858;6.586;2023-08-07T10:21:54;6.73;;;2.33;;
14316;SDS011;7242;50.858;6.586;2023-08-07T10:24:57;6.03;;;2.43;;
14316;SDS011;7242;50.858;6.586;2023-08-07T10:28:00;5.50;;;2.20;;
14316;SDS011;7242;50.858;6.586;2023-08-07T10:31:03;4.93;;;2.30;;
14316;SDS011;7242;50.858;6.586;2023-08-07T10:34:06;4.23;;;2.17;;
14316;SDS011;7242;50.858;6.586;2023-08-07T10:37:07;5.07;;;1.93;;
14316;SDS011;7242;50.858;6.586;2023-08-07T10:40:09;6.13;;;2.10;;
14316;SDS011;7242;50.858;6.586;2023-08-07T10:43:12;5.77;;;2.27;;
14316;SDS011;7242;50.858;6.586;2023-08-07T10:46:19;4.40;;;1.97;;
14316;SDS011;7242;50.858;6.586;2023-08-07T10:49:31;6.17;;;2.13;;
14316;SDS011;7242;50.858;6.586;2023-08-07T10:52:40;3.93;;;1.90;;
14316;SDS011;7242;50.858;6.586;2023-08-07T10:55:44;6.93;;;2.47;;
14316;SDS011;7242;50.858;6.586;2023-08-07T10:58:51;5.33;;;1.97;;
14316;SDS011;7242;50.858;6.586;2023-08-07T11:01:53;3.80;;;1.80;;
14316;SDS011;7242;50.858;6.586;2023-08-07T11:04:55;3.37;;;2.10;;
14316;SDS011;7242;50.858;6.586;2023-08-07T11:07:56;4.63;;;1.90;;
14316;SDS011;7242;50.858;6.586;2023-08-07T11:11:03;5.70;;;2.00;;
14316;SDS011;7242;50.858;6.586;2023-08-07T11:14:17;5.63;;;1.90;;
14316;SDS011;7242;50.858;6.586;2023-08-07T11:17:19;5.03;;;2.30;;
14316;SDS011;7242;50.858;6.586;2023-08-07T11:20:19;5.63;;;2.10;;
14316;SDS011;7242;50.858;6.586;2023-08-07T11:23:24;5.40;;;2.13;;
14316;SDS011;7242;50.858;6.586;2023-08-07T11:26:25;4.80;;;1.67;;
14316;SDS011;7242;50.858;6.586;2023-08-07T11:29:28;5.63;;;2.10;;
14316;SDS011;7242;50.858;6.586;2023-08-07T11:32:30;7.60;;;2.60;;
14316;SDS011;7242;50.858;6.586;2023-08-07T11:35:31;6.70;;;2.50;;
14316;SDS011;7242;50.858;6.586;2023-08-07T11:38:38;6.60;;;1.80;;
14316;SDS011;7242;50.858;6.586;2023-08-07T11:41:39;6.27;;;2.30;;
14316;SDS011;7242;50.858;6.586;2023-08-07T11:44:40;3.93;;;1.60;;
14316;SDS011;7242;50.858;6.586;2023-08-07T11:47:42;5.77;;;1.77;;
14316;SDS011;7242;50.858;6.586;2023-08-07T11:50:42;3.43;;;1.80;;
14316;SDS011;7242;50.858;6.586;2023-08-07T11:53:43;9.27;;;2.27;;
14316;SDS011;7242;50.858;6.586;2023-08-07T11:56:45;4.40;;;1.70;;
14316;SDS011;7242;50.858;6.586;2023-08-07T11:59:52;5.03;;;1.83;;
14316;SDS011;7242;50.858;6.586;2023-08-07T12:02:53;5.00;;;2.30;;
14316;SDS011;7242;50.858;6.586;2023-08-07T12:05:55;5.63;;;2.00;;
14316;SDS011;7242;50.858;6.586;2023-08-07T12:08:57;5.33;;;2.17;;
14316;SDS011;7242;50.858;6.586;2023-08-07T12:11:58;2.97;;;1.60;;
14316;SDS011;7242;50.858;6.586;2023-08-07T12:14:58;4.63;;;1.73;;
14316;SDS011;7242;50.858;6.586;2023-08-07T12:18:01;4.67;;;1.83;;
14316;SDS011;7242;50.858;6.586;2023-08-07T12:21:06;4.10;;;1.93;;
14316;SDS011;7242;50.858;6.586;2023-08-07T12:24:07;7.67;;;2.27;;
14316;SDS011;7242;50.858;6.586;2023-08-07T12:27:08;4.40;;;1.80;;
14316;SDS011;7242;50.858;6.586;2023-08-07T12:30:09;5.63;;;1.90;;
14316;SDS011;7242;50.858;6.586;2023-08-07T12:33:10;4.70;;;2.10;;
14316;SDS011;7242;50.858;6.586;2023-08-07T12:36:11;5.77;;;1.90;;
14316;SDS011;7242;50.858;6.586;2023-08-07T12:39:13;3.97;;;1.80;;
14316;SDS011;7242;50.858;6.586;2023-08-07T12:42:15;3.00;;;1.70;;
14316;SDS011;7242;50.858;6.586;2023-08-07T12:45:15;4.40;;;2.10;;
14316;SDS011;7242;50.858;6.586;2023-08-07T12:48:16;3.50;;;1.80;;
14316;SDS011;7242;50.858;6.586;2023-08-07T12:51:18;6.07;;;2.10;;
14316;SDS011;7242;50.858;6.586;2023-08-07T12:54:19;6.47;;;2.13;;
14316;SDS011;7242;50.858;6.586;2023-08-07T12:57:20;3.53;;;1.83;;
14316;SDS011;7242;50.858;6.586;2023-08-07T13:00:21;5.33;;;1.80;;
14316;SDS011;7242;50.858;6.586;2023-08-07T13:03:22;6.77;;;2.07;;
14316;SDS011;7242;50.858;6.586;2023-08-07T13:06:23;4.87;;;2.30;;
14316;SDS011;7242;50.858;6.586;2023-08-07T13:09:24;3.90;;;1.67;;
14316;SDS011;7242;50.858;6.586;2023-08-07T13:12:25;5.40;;;1.93;;
14316;SDS011;7242;50.858;6.586;2023-08-07T13:15:26;2.73;;;1.70;;
14316;SDS011;7242;50.858;6.586;2023-08-07T13:18:26;6.60;;;2.13;;
14316;SDS011;7242;50.858;6.586;2023-08-07T13:21:27;4.67;;;1.80;;
14316;SDS011;7242;50.858;6.586;2023-08-07T13:24:28;6.00;;;2.50;;
14316;SDS011;7242;50.858;6.586;2023-08-07T13:27:29;7.43;;;3.03;;
14316;SDS011;7242;50.858;6.586;2023-08-07T13:30:30;8.30;;;2.60;;
14316;SDS011;7242;50.858;6.586;2023-08-07T13:33:31;8.53;;;2.07;;
14316;SDS011;7242;50.858;6.586;2023-08-07T13:36:32;5.60;;;2.20;;
14316;SDS011;7242;50.858;6.586;2023-08-07T13:39:33;3.37;;;1.80;;
14316;SDS011;7242;50.858;6.586;2023-08-07T13:42:33;4.40;;;1.73;;
14316;SDS011;7242;50.858;6.586;2023-08-07T13:45:35;3.30;;;1.97;;
14316;SDS011;7242;50.858;6.586;2023-08-07T13:48:36;5.53;;;1.83;;
14316;SDS011;7242;50.858;6.586;2023-08-07T13:51:37;13.17;;;3.30;;
14316;SDS011;7242;50.858;6.586;2023-08-07T13:54:38;7.27;;;2.17;;
14316;SDS011;7242;50.858;6.586;2023-08-07T13:57:39;4.73;;;1.97;;
14316;SDS011;7242;50.858;6.586;2023-08-07T14:00:40;4.63;;;1.83;;
14316;SDS011;7242;50.858;6.586;2023-08-07T14:03:40;3.50;;;2.10;;
14316;SDS011;7242;50.858;6.586;2023-08-07T14:06:41;4.03;;;1.80;;
14316;SDS011;7242;50.858;6.586;2023-08-07T14:09:43;3.20;;;1.90;;
14316;SDS011;7242;50.858;6.586;2023-08-07T14:12:44;3.90;;;1.90;;
14316;SDS011;7242;50.858;6.586;2023-08-07T14:15:44;3.37;;;1.80;;
14316;SDS011;7242;50.858;6.586;2023-08-07T14:18:45;3.83;;;1.70;;
14316;SDS011;7242;50.858;6.586;2023-08-07T14:21:46;4.83;;;1.80;;
14316;SDS011;7242;50.858;6.586;2023-08-07T14:24:47;2.30;;;1.50;;
14316;SDS011;7242;50.858;6.586;2023-08-07T14:27:48;3.33;;;1.60;;
14316;SDS011;7242;50.858;6.586;2023-08-07T14:30:49;2.63;;;1.83;;
14316;SDS011;7242;50.858;6.586;2023-08-07T14:33:50;1.87;;;1.50;;
14316;SDS011;7242;50.858;6.586;2023-08-07T14:36:51;2.90;;;1.80;;
14316;SDS011;7242;50.858;6.586;2023-08-07T14:39:54;2.93;;;1.60;;
14316;SDS011;7242;50.858;6.586;2023-08-07T14:42:55;6.00;;;1.77;;
14316;SDS011;7242;50.858;6.586;2023-08-07T14:45:56;2.80;;;1.50;;
14316;SDS011;7242;50.858;6.586;2023-08-07T14:48:57;3.33;;;1.80;;
14316;SDS011;7242;50.858;6.586;2023-08-07T14:51:58;4.37;;;1.93;;
14316;SDS011;7242;50.858;6.586;2023-08-07T14:54:59;3.93;;;1.63;;
14316;SDS011;7242;50.858;6.586;2023-08-07T14:58:01;3.80;;;1.57;;
14316;SDS011;7242;50.858;6.586;2023-08-07T15:01:02;3.73;;;1.53;;
14316;SDS011;7242;50.858;6.586;2023-08-07T15:04:03;1.57;;;1.27;;
14316;SDS011;7242;50.858;6.586;2023-08-07T15:07:04;2.53;;;1.40;;
14316;SDS011;7242;50.858;6.586;2023-08-07T15:10:05;1.77;;;1.30;;
14316;SDS011;7242;50.858;6.586;2023-08-07T15:13:07;4.13;;;1.70;;
14316;SDS011;7242;50.858;6.586;2023-08-07T15:16:08;4.40;;;1.60;;
14316;SDS011;7242;50.858;6.586;2023-08-07T15:19:09;3.23;;;1.20;;
14316;SDS011;7242;50.858;6.586;2023-08-07T15:22:09;2.97;;;1.37;;
14316;SDS011;7242;50.858;6.586;2023-08-07T15:25:10;2.53;;;1.27;;
14316;SDS011;7242;50.858;6.586;2023-08-07T15:28:11;1.80;;;1.50;;
14316;SDS011;7242;50.858;6.586;2023-08-07T15:31:12;1.23;;;1.13;;
14316;SDS011;7242;50.858;6.586;2023-08-07T15:34:12;2.17;;;1.27;;
14316;SDS011;7242;50.858;6.586;2023-08-07T15:37:13;1.47;;;1.00;;
14316;SDS011;7242;50.858;6.586;2023-08-07T15:40:14;2.83;;;1.00;;
14316;SDS011;7242;50.858;6.586;2023-08-07T15:43:15;1.97;;;1.33;;
14316;SDS011;7242;50.858;6.586;2023-08-07T15:46:16;3.63;;;0.90;;
14316;SDS011;7242;50.858;6.586;2023-08-07T15:49:17;2.40;;;1.00;;
14316;SDS011;7242;50.858;6.586;2023-08-07T15:52:18;2.23;;;1.30;;
14316;SDS011;7242;50.858;6.586;2023-08-07T15:55:19;2.57;;;1.13;;
14316;SDS011;7242;50.858;6.586;2023-08-07T15:58:19;2.40;;;1.10;;
14316;SDS011;7242;50.858;6.586;2023-08-07T16:01:22;1.77;;;1.30;;
14316;SDS011;7242;50.858;6.586;2023-08-07T16:04:23;1.70;;;1.10;;
14316;SDS011;7242;50.858;6.586;2023-08-07T16:07:24;2.50;;;1.00;;
14316;SDS011;7242;50.858;6.586;2023-08-07T16:10:26;2.10;;;1.30;;
14316;SDS011;7242;50.858;6.586;2023-08-07T16:13:27;5.50;;;1.37;;
14316;SDS011;7242;50.858;6.586;2023-08-07T16:16:28;2.60;;;1.20;;
14316;SDS011;7242;50.858;6.586;2023-08-07T16:19:29;3.10;;;1.20;;
14316;SDS011;7242;50.858;6.586;2023-08-07T16:22:30;2.07;;;1.20;;
14316;SDS011;7242;50.858;6.586;2023-08-07T16:25:32;1.53;;;1.37;;
14316;SDS011;7242;50.858;6.586;2023-08-07T16:28:33;2.87;;;1.70;;
14316;SDS011;7242;50.858;6.586;2023-08-07T16:31:34;3.17;;;1.30;;
14316;SDS011;7242;50.858;6.586;2023-08-07T16:34:35;3.40;;;1.40;;
14316;SDS011;7242;50.858;6.586;2023-08-07T16:37:36;3.40;;;1.40;;
14316;SDS011;7242;50.858;6.586;2023-08-07T16:40:38;2.20;;;1.47;;
14316;SDS011;7242;50.858;6.586;2023-08-07T16:43:38;1.63;;;1.40;;
14316;SDS011;7242;50.858;6.586;2023-08-07T16:46:40;1.47;;;1.20;;
14316;SDS011;7242;50.858;6.586;2023-08-07T16:49:42;2.33;;;1.30;;
14316;SDS011;7242;50.858;6.586;2023-08-07T16:52:43;1.47;;;1.00;;
14316;SDS011;7242;50.858;6.586;2023-08-07T16:55:44;1.50;;;1.30;;
14316;SDS011;7242;50.858;6.586;2023-08-07T16:58:44;2.87;;;1.30;;
14316;SDS011;7242;50.858;6.586;2023-08-07T17:36:07;4.90;;;1.37;;
14316;SDS011;7242;50.858;6.586;2023-08-07T17:39:08;2.47;;;1.27;;
14316;SDS011;7242;50.858;6.586;2023-08-07T17:42:09;1.83;;;1.20;;
14316;SDS011;7242;50.858;6.586;2023-08-07T17:45:10;13.83;;;9.40;;
14316;SDS011;7242;50.858;6.586;2023-08-07T17:48:11;10.77;;;6.60;;
14316;SDS011;7242;50.858;6.586;2023-08-07T17:51:12;39.37;;;18.00;;
14316;SDS011;7242;50.858;6.586;2023-08-07T17:54:13;84.47;;;33.67;;
14316;SDS011;7242;50.858;6.586;2023-08-07T17:57:14;61.27;;;26.97;;
14316;SDS011;7242;50.858;6.586;2023-08-07T18:00:15;22.03;;;10.13;;
14316;SDS011;7242;50.858;6.586;2023-08-07T18:03:16;5.17;;;2.83;;
14316;SDS011;7242;50.858;6.586;2023-08-07T18:06:17;7.27;;;2.60;;
14316;SDS011;7242;50.858;6.586;2023-08-07T18:09:18;4.63;;;1.90;;
14316;SDS011;7242;50.858;6.586;2023-08-07T18:12:18;2.63;;;1.70;;
14316;SDS011;7242;50.858;6.586;2023-08-07T18:15:19;2.77;;;1.60;;
14316;SDS011;7242;50.858;6.586;2023-08-07T18:18:20;4.03;;;1.83;;
14316;SDS011;7242;50.858;6.586;2023-08-07T18:21:21;4.57;;;1.67;;
14316;SDS011;7242;50.858;6.586;2023-08-07T18:24:22;3.27;;;1.60;;
14316;SDS011;7242;50.858;6.586;2023-08-07T18:27:23;3.13;;;1.40;;
14316;SDS011;7242;50.858;6.586;2023-08-07T18:30:24;2.50;;;1.50;;
14316;SDS011;7242;50.858;6.586;2023-08-07T18:33:26;2.17;;;1.40;;
14316;SDS011;7242;50.858;6.586;2023-08-07T18:36:27;2.37;;;1.40;;
14316;SDS011;7242;50.858;6.586;2023-08-07T18:39:28;4.93;;;1.70;;
14316;SDS011;7242;50.858;6.586;2023-08-07T18:42:29;4.63;;;2.10;;
14316;SDS011;7242;50.858;6.586;2023-08-07T18:45:30;3.63;;;2.10;;
14316;SDS011;7242;50.858;6.586;2023-08-07T18:48:30;3.23;;;1.60;;
14316;SDS011;7242;50.858;6.586;2023-08-07T18:51:31;4.37;;;1.50;;
14316;SDS011;7242;50.858;6.586;2023-08-07T18:54:34;2.40;;;1.60;;
14316;SDS011;7242;50.858;6.586;2023-08-07T18:57:34;2.97;;;1.50;;
14316;SDS011;7242;50.858;6.586;2023-08-07T19:00:35;3.63;;;1.30;;
14316;SDS011;7242;50.858;6.586;2023-08-07T19:03:36;1.63;;;1.30;;
14316;SDS011;7242;50.858;6.586;2023-08-07T19:06:36;2.67;;;1.30;;
14316;SDS011;7242;50.858;6.586;2023-08-07T19:09:38;1.83;;;1.50;;